Celebrity Equinox — 9HXD9 — position and weather

sailwx.info

Track history (hours):
 
Tides and Currents Weather Stations Pressure Air Temp Water Temp Dewpoint Dewpoint Depression Visibility Wind Speed Wind Dir Waves Ship Positions

Celebrity Equinox

Last reported at 2014-Sep-02 23:22 UTC. Time now 2014-Sep-03 00:10 UTC.
Position N 37°30' E 024°23'.

Length 317 m; draft 9 m.

Type: Ship. MMSI: 249667000.

Date/timePositionNaut miles runAvg speedWind from/ knotsBaromVisibWave heightAir tempDewpointWater temp
2014-Sep-02 23:22N 37°30' E 024°23'1417.3
2014-Sep-02 22:33N 37°32' E 024°41'1717.4
2014-Sep-02 21:33N 37°32' E 025°03'1616.3
2014-Sep-02 20:33N 37°35' E 025°23'1717.2
2014-Sep-02 19:33N 37°43' E 025°42'1817.3
2014-Sep-02 18:30N 37°50' E 026°03'23 1.3
2014-Sep-02 00:33N 37°47' E 026°32'9 9.4
2014-Sep-01 23:33N 37°39' E 026°25'9 9.5
2014-Sep-01 22:33N 37°31' E 026°18'10 9.7
2014-Sep-01 21:33N 37°23' E 026°11'10 9.6
2014-Sep-01 20:32N 37°15' E 026°04'10 9.7
2014-Sep-01 19:33N 37°07' E 025°57'10 9.7
2014-Sep-01 18:34N 36°59' E 025°51'10 9.7
2014-Sep-01 17:33N 36°51' E 025°44'1010.1
2014-Sep-01 16:32N 36°43' E 025°36'10 9.9
2014-Sep-01 15:33N 36°35' E 025°28'10 9.5
2014-Sep-01 14:33N 36°27' E 025°22'4 2.6
2014-Sep-01 13:08N 36°25' E 025°25'0 0.0
2014-Sep-01 12:33N 36°25' E 025°25'0 0.0
2014-Sep-01 11:33N 36°25' E 025°25'0 0.0
2014-Sep-01 10:33N 36°25' E 025°25'0 0.0
2014-Sep-01 09:33N 36°25' E 025°25'0 0.0
2014-Sep-01 08:33N 36°25' E 025°25'0 0.0
2014-Sep-01 07:33N 36°25' E 025°25'0 0.0
2014-Sep-01 06:33N 36°25' E 025°25'0 0.0
2014-Sep-01 05:33N 36°25' E 025°25'0 0.0
2014-Sep-01 04:33N 36°25' E 025°25'1 1.5
2014-Sep-01 03:33N 36°23' E 025°24'1717.0
2014-Sep-01 02:33N 36°24' E 025°03'2222.2
2014-Sep-01 01:33N 36°23' E 024°36'1918.9
2014-Sep-01 00:33N 36°24' E 024°12'1818.0
2014-Aug-31 23:33N 36°24' E 023°50'1818.0
2014-Aug-31 22:33N 36°24' E 023°27'  
2014-Aug-28 20:33N 42°54' E 010°02'1313.1
2014-Aug-28 19:33N 43°07' E 010°06'1313.3
2014-Aug-28 18:33N 43°20' E 010°09'1312.6
2014-Aug-28 17:33N 43°32' E 010°15'3 2.5
2014-Aug-28 16:32N 43°33' E 010°18'0 0.0
2014-Aug-28 15:31N 43°33' E 010°18'0 0.0
2014-Aug-28 14:31N 43°33' E 010°18'0 0.0
2014-Aug-28 13:30N 43°33' E 010°18'0 0.0
2014-Aug-28 12:33N 43°33' E 010°18'0 0.0
2014-Aug-28 11:32N 43°33' E 010°18'0 0.0
2014-Aug-28 10:29N 43°33' E 010°18'0 0.0
2014-Aug-28 09:32N 43°33' E 010°18'0 0.0
2014-Aug-28 08:31N 43°33' E 010°18'0 0.0
2014-Aug-28 07:22N 43°33' E 010°18'0 0.0
2014-Aug-28 06:33N 43°33' E 010°18'0 0.0
2014-Aug-28 05:33N 43°33' E 010°18'0 0.2
2014-Aug-28 04:33N 43°33' E 010°18'9 9.0
2014-Aug-28 03:33N 43°30' E 010°06'1313.4
2014-Aug-28 02:33N 43°31' E 009°48'1313.2
2014-Aug-28 01:34N 43°32' E 009°30'1313.1
2014-Aug-28 00:34N 43°33' E 009°12'1313.4
2014-Aug-27 23:34N 43°34' E 008°53'1413.5
2014-Aug-27 22:33N 43°35' E 008°34'1313.3
2014-Aug-27 21:33N 43°36' E 008°16'2813.4
2014-Aug-27 19:27N 43°38' E 007°37'1313.1
2014-Aug-27 18:27N 43°39' E 007°19'2 2.0
2014-Aug-27 17:27N 43°41' E 007°19'0 0.1
2014-Aug-27 16:33N 43°41' E 007°19'0 0.0
2014-Aug-27 15:32N 43°41' E 007°19'0 0.0
2014-Aug-27 14:08N 43°41' E 007°19'0 0.0
2014-Aug-27 13:31N 43°41' E 007°19'0 0.0
2014-Aug-27 12:13N 43°41' E 007°19'0 0.0
2014-Aug-27 11:25N 43°41' E 007°19'0 0.0
2014-Aug-27 10:30N 43°41' E 007°19'0 0.0
2014-Aug-27 09:24N 43°41' E 007°19'0 0.0
2014-Aug-27 08:29N 43°41' E 007°19'0 0.1
2014-Aug-27 07:33N 43°41' E 007°19'1211.8
2014-Aug-27 06:33N 43°31' E 007°12'1817.6
2014-Aug-27 05:34N 43°16' E 006°58'1717.1
2014-Aug-27 04:34N 43°03' E 006°43'1717.5
2014-Aug-27 03:34N 42°52' E 006°24'1717.3
2014-Aug-27 02:34N 42°44' E 006°04'1817.9
2014-Aug-27 01:33N 42°38' E 005°41'1818.4
2014-Aug-27 00:34N 42°28' E 005°20'1919.4
2014-Aug-26 23:33N 42°19' E 004°56'1918.7
2014-Aug-26 22:33N 42°11' E 004°34'1818.6
2014-Aug-26 21:33N 42°02' E 004°12'1818.2
2014-Aug-26 20:33N 41°54' E 003°50'1717.4
2014-Aug-26 19:33N 41°46' E 003°29'1918.6
2014-Aug-26 18:33N 41°37' E 003°07'1817.9
2014-Aug-26 17:33N 41°29' E 002°46'2118.6
2014-Aug-26 16:27N 41°19' E 002°21'8 9.3
2014-Aug-26 15:32N 41°21' E 002°10'1 0.7
2014-Aug-26 14:05N 41°22' E 002°11'0 0.0
2014-Aug-26 13:32N 41°22' E 002°11'0 0.0
2014-Aug-26 12:32N 41°22' E 002°11'0 0.0
2014-Aug-26 11:28N 41°22' E 002°11'0 0.0
2014-Aug-26 10:08N 41°22' E 002°11'0 0.0
2014-Aug-26 02:24N 41°22' E 002°11'0 0.0
2014-Aug-26 00:04N 41°22' E 002°11'0 0.0
2014-Aug-25 22:31N 41°22' E 002°11'0 0.0
2014-Aug-25 21:27N 41°22' E 002°11'0 0.0
2014-Aug-25 20:31N 41°22' E 002°11'0 0.0
2014-Aug-25 19:32N 41°22' E 002°11'0 0.0
2014-Aug-25 18:24N 41°22' E 002°11'0 0.0
2014-Aug-25 11:20N 41°22' E 002°11'0 0.0
2014-Aug-25 10:33N 41°22' E 002°11'0 0.1
2014-Aug-25 09:30N 41°22' E 002°11'0 0.0
2014-Aug-25 08:32N 41°22' E 002°11'0 0.0
2014-Aug-25 07:33N 41°22' E 002°11'0 0.0
2014-Aug-25 06:31N 41°22' E 002°11'4 3.8
2014-Aug-25 05:30N 41°18' E 002°11'1716.7
2014-Aug-25 04:31N 41°09' E 002°29'1717.5
2014-Aug-25 03:33N 41°01' E 002°49'1717.3
2014-Aug-25 02:33N 40°53' E 003°10'1716.9
2014-Aug-25 01:33N 40°44' E 003°29'24717.4
2014-Aug-24 11:22N 38°50' E 008°14'3217.5
2014-Aug-24 09:32N 38°46' E 008°54'1817.8
2014-Aug-24 08:32N 38°44' E 009°17'16017.6
2014-Aug-23 23:27N 38°29' E 012°41'  
Track history (hours):
 
Tides and Currents Weather Stations Pressure Air Temp Water Temp Dewpoint Dewpoint Depression Visibility Wind Speed Wind Dir Waves Ship Positions

Celebrity Equinox

Last reported at 2014-Sep-02 23:22 UTC. Time now 2014-Sep-03 00:10 UTC.
Position N 37°30' E 024°23'.

Length 317 m; draft 9 m.

Type: Ship. MMSI: 249667000.

Date/timePositionNaut miles runAvg speedWind from/ knotsBaromVisibWave heightAir tempDewpointWater temp
2014-Sep-02 23:22N 37°30' E 024°23'1417.3
2014-Sep-02 22:33N 37°32' E 024°41'1717.4
2014-Sep-02 21:33N 37°32' E 025°03'1616.3
2014-Sep-02 20:33N 37°35' E 025°23'1717.2
2014-Sep-02 19:33N 37°43' E 025°42'1817.3
2014-Sep-02 18:30N 37°50' E 026°03'23 1.3
2014-Sep-02 00:33N 37°47' E 026°32'9 9.4
2014-Sep-01 23:33N 37°39' E 026°25'9 9.5
2014-Sep-01 22:33N 37°31' E 026°18'10 9.7
2014-Sep-01 21:33N 37°23' E 026°11'10 9.6
2014-Sep-01 20:32N 37°15' E 026°04'10 9.7
2014-Sep-01 19:33N 37°07' E 025°57'10 9.7
2014-Sep-01 18:34N 36°59' E 025°51'10 9.7
2014-Sep-01 17:33N 36°51' E 025°44'1010.1
2014-Sep-01 16:32N 36°43' E 025°36'10 9.9
2014-Sep-01 15:33N 36°35' E 025°28'10 9.5
2014-Sep-01 14:33N 36°27' E 025°22'4 2.6
2014-Sep-01 13:08N 36°25' E 025°25'0 0.0
2014-Sep-01 12:33N 36°25' E 025°25'0 0.0
2014-Sep-01 11:33N 36°25' E 025°25'0 0.0
2014-Sep-01 10:33N 36°25' E 025°25'0 0.0
2014-Sep-01 09:33N 36°25' E 025°25'0 0.0
2014-Sep-01 08:33N 36°25' E 025°25'0 0.0
2014-Sep-01 07:33N 36°25' E 025°25'0 0.0
2014-Sep-01 06:33N 36°25' E 025°25'0 0.0
2014-Sep-01 05:33N 36°25' E 025°25'0 0.0
2014-Sep-01 04:33N 36°25' E 025°25'1 1.5
2014-Sep-01 03:33N 36°23' E 025°24'1717.0
2014-Sep-01 02:33N 36°24' E 025°03'2222.2
2014-Sep-01 01:33N 36°23' E 024°36'1918.9
2014-Sep-01 00:33N 36°24' E 024°12'1818.0
2014-Aug-31 23:33N 36°24' E 023°50'1818.0
2014-Aug-31 22:33N 36°24' E 023°27'  
2014-Aug-28 20:33N 42°54' E 010°02'1313.1
2014-Aug-28 19:33N 43°07' E 010°06'1313.3
2014-Aug-28 18:33N 43°20' E 010°09'1312.6
2014-Aug-28 17:33N 43°32' E 010°15'3 2.5
2014-Aug-28 16:32N 43°33' E 010°18'0 0.0
2014-Aug-28 15:31N 43°33' E 010°18'0 0.0
2014-Aug-28 14:31N 43°33' E 010°18'0 0.0
2014-Aug-28 13:30N 43°33' E 010°18'0 0.0
2014-Aug-28 12:33N 43°33' E 010°18'0 0.0
2014-Aug-28 11:32N 43°33' E 010°18'0 0.0
2014-Aug-28 10:29N 43°33' E 010°18'0 0.0
2014-Aug-28 09:32N 43°33' E 010°18'0 0.0
2014-Aug-28 08:31N 43°33' E 010°18'0 0.0
2014-Aug-28 07:22N 43°33' E 010°18'0 0.0
2014-Aug-28 06:33N 43°33' E 010°18'0 0.0
2014-Aug-28 05:33N 43°33' E 010°18'0 0.2
2014-Aug-28 04:33N 43°33' E 010°18'9 9.0
2014-Aug-28 03:33N 43°30' E 010°06'1313.4
2014-Aug-28 02:33N 43°31' E 009°48'1313.2
2014-Aug-28 01:34N 43°32' E 009°30'1313.1
2014-Aug-28 00:34N 43°33' E 009°12'1313.4
2014-Aug-27 23:34N 43°34' E 008°53'1413.5
2014-Aug-27 22:33N 43°35' E 008°34'1313.3
2014-Aug-27 21:33N 43°36' E 008°16'2813.4
2014-Aug-27 19:27N 43°38' E 007°37'1313.1
2014-Aug-27 18:27N 43°39' E 007°19'2 2.0
2014-Aug-27 17:27N 43°41' E 007°19'0 0.1
2014-Aug-27 16:33N 43°41' E 007°19'0 0.0
2014-Aug-27 15:32N 43°41' E 007°19'0 0.0
2014-Aug-27 14:08N 43°41' E 007°19'0 0.0
2014-Aug-27 13:31N 43°41' E 007°19'0 0.0
2014-Aug-27 12:13N 43°41' E 007°19'0 0.0
2014-Aug-27 11:25N 43°41' E 007°19'0 0.0
2014-Aug-27 10:30N 43°41' E 007°19'0 0.0
2014-Aug-27 09:24N 43°41' E 007°19'0 0.0
2014-Aug-27 08:29N 43°41' E 007°19'0 0.1
2014-Aug-27 07:33N 43°41' E 007°19'1211.8
2014-Aug-27 06:33N 43°31' E 007°12'1817.6
2014-Aug-27 05:34N 43°16' E 006°58'1717.1
2014-Aug-27 04:34N 43°03' E 006°43'1717.5
2014-Aug-27 03:34N 42°52' E 006°24'1717.3
2014-Aug-27 02:34N 42°44' E 006°04'1817.9
2014-Aug-27 01:33N 42°38' E 005°41'1818.4
2014-Aug-27 00:34N 42°28' E 005°20'1919.4
2014-Aug-26 23:33N 42°19' E 004°56'1918.7
2014-Aug-26 22:33N 42°11' E 004°34'1818.6
2014-Aug-26 21:33N 42°02' E 004°12'1818.2
2014-Aug-26 20:33N 41°54' E 003°50'1717.4
2014-Aug-26 19:33N 41°46' E 003°29'1918.6
2014-Aug-26 18:33N 41°37' E 003°07'1817.9
2014-Aug-26 17:33N 41°29' E 002°46'2118.6
2014-Aug-26 16:27N 41°19' E 002°21'8 9.3
2014-Aug-26 15:32N 41°21' E 002°10'1 0.7
2014-Aug-26 14:05N 41°22' E 002°11'0 0.0
2014-Aug-26 13:32N 41°22' E 002°11'0 0.0
2014-Aug-26 12:32N 41°22' E 002°11'0 0.0
2014-Aug-26 11:28N 41°22' E 002°11'0 0.0
2014-Aug-26 10:08N 41°22' E 002°11'0 0.0
2014-Aug-26 02:24N 41°22' E 002°11'0 0.0
2014-Aug-26 00:04N 41°22' E 002°11'0 0.0
2014-Aug-25 22:31N 41°22' E 002°11'0 0.0
2014-Aug-25 21:27N 41°22' E 002°11'0 0.0
2014-Aug-25 20:31N 41°22' E 002°11'0 0.0
2014-Aug-25 19:32N 41°22' E 002°11'0 0.0
2014-Aug-25 18:24N 41°22' E 002°11'0 0.0
2014-Aug-25 11:20N 41°22' E 002°11'0 0.0
2014-Aug-25 10:33N 41°22' E 002°11'0 0.1
2014-Aug-25 09:30N 41°22' E 002°11'0 0.0
2014-Aug-25 08:32N 41°22' E 002°11'0 0.0
2014-Aug-25 07:33N 41°22' E 002°11'0 0.0
2014-Aug-25 06:31N 41°22' E 002°11'4 3.8
2014-Aug-25 05:30N 41°18' E 002°11'1716.7
2014-Aug-25 04:31N 41°09' E 002°29'1717.5
2014-Aug-25 03:33N 41°01' E 002°49'1717.3
2014-Aug-25 02:33N 40°53' E 003°10'1716.9
2014-Aug-25 01:33N 40°44' E 003°29'24717.4
2014-Aug-24 11:22N 38°50' E 008°14'3217.5
2014-Aug-24 09:32N 38°46' E 008°54'1817.8
2014-Aug-24 08:32N 38°44' E 009°17'16017.6
2014-Aug-23 23:27N 38°29' E 012°41'  

Dump ship's entire track history